Time;durP1;ratioP1;P1;durP2;ratioP2;P2;SDS_P1;SDS_P2;PMS_P1;PMS_P2;Temp;Humidity;BMP_temperature;BMP_pressure;BME280_temperature;BME280_humidity;BME280_pressure;Samples;Min_cycle;Max_cycle;Signal;HPM_P1;HPM_P2
2023/02/26 00:01:24;;;;;;;5.53;2.30;;;2.50;99.90;;;;;;5035965;28;25081;-74
2023/02/26 00:03:51;;;;;;;7.32;1.73;;;2.40;99.90;;;;;;5049909;28;25098;-75
2023/02/26 00:06:16;;;;;;;4.60;2.40;;;2.40;99.90;;;;;;5046641;28;25063;-73
2023/02/26 00:08:42;;;;;;;7.22;2.35;;;2.40;99.90;;;;;;5038179;28;25133;-72
2023/02/26 00:11:09;;;;;;;5.65;2.08;;;2.40;99.90;;;;;;5041556;28;25083;-76
2023/02/26 00:13:36;;;;;;;4.32;2.13;;;2.40;99.90;;;;;;5038243;28;25106;-77
2023/02/26 00:16:05;;;;;;;11.25;2.50;;;2.30;99.90;;;;;;5037984;28;25116;-77
2023/02/26 00:18:30;;;;;;;7.00;2.40;;;2.30;99.90;;;;;;5037489;28;25060;-76
2023/02/26 00:20:56;;;;;;;9.95;2.30;;;2.30;99.90;;;;;;5035822;28;25069;-75
2023/02/26 00:23:23;;;;;;;8.55;2.60;;;2.30;99.90;;;;;;5032124;28;25164;-74
2023/02/26 00:25:49;;;;;;;10.13;3.38;;;2.30;99.90;;;;;;5033101;28;25065;-75
2023/02/26 00:28:16;;;;;;;8.45;2.50;;;2.30;99.90;;;;;;5036551;28;25138;-75
2023/02/26 00:30:42;;;;;;;6.15;2.20;;;2.30;99.90;;;;;;5023498;28;25068;-75
2023/02/26 00:33:07;;;;;;;4.35;2.20;;;2.30;99.90;;;;;;5035924;28;25096;-76
2023/02/26 00:35:33;;;;;;;7.68;2.60;;;2.30;99.90;;;;;;5024190;28;25065;-75
2023/02/26 00:38:09;;;;;;;5.35;2.80;;;2.30;99.90;;;;;;5025862;28;25105;-73
2023/02/26 00:40:46;;;;;;;5.07;2.15;;;2.30;99.90;;;;;;5041657;28;25074;-73
2023/02/26 00:43:21;;;;;;;8.57;2.10;;;2.30;99.90;;;;;;5030472;28;24992;-75
2023/02/26 00:46:36;;;;;;;6.88;2.60;;;2.20;99.90;;;;;;5042126;28;25103;-73
2023/02/26 00:49:08;;;;;;;8.98;2.10;;;2.20;99.90;;;;;;5037726;28;25112;-73
2023/02/26 00:51:50;;;;;;;8.93;2.75;;;2.20;99.90;;;;;;5041287;28;25085;-71
2023/02/26 00:54:20;;;;;;;5.20;2.50;;;2.20;99.90;;;;;;5043619;28;25069;-73
2023/02/26 00:56:46;;;;;;;7.40;2.00;;;2.20;99.90;;;;;;5043502;28;25168;-75
2023/02/26 00:59:12;;;;;;;10.45;2.40;;;2.20;99.90;;;;;;5048469;28;25099;-74
2023/02/26 01:01:37;;;;;;;7.70;1.58;;;2.20;99.90;;;;;;5037445;28;25075;-74
2023/02/26 01:04:03;;;;;;;10.02;2.40;;;2.20;99.90;;;;;;5030978;28;25068;-75
2023/02/26 01:06:32;;;;;;;10.60;2.58;;;2.30;99.90;;;;;;5041481;28;25062;-74
2023/02/26 01:09:11;;;;;;;10.48;2.20;;;2.20;99.90;;;;;;5039932;28;25133;-74
2023/02/26 01:11:37;;;;;;;8.73;2.15;;;2.30;99.90;;;;;;5041019;28;25062;-73
2023/02/26 01:14:04;;;;;;;4.20;1.73;;;2.30;99.90;;;;;;5041245;28;25061;-74
2023/02/26 01:16:37;;;;;;;6.70;1.95;;;2.40;99.90;;;;;;5042170;28;25093;-73
2023/02/26 01:19:21;;;;;;;9.23;1.73;;;2.40;99.90;;;;;;5039239;28;25071;-73
2023/02/26 01:21:53;;;;;;;10.40;1.77;;;2.50;99.90;;;;;;5042526;28;25084;-73
2023/02/26 01:24:23;;;;;;;6.90;1.60;;;2.50;99.90;;;;;;5042860;28;25089;-76
2023/02/26 01:26:49;;;;;;;7.60;1.63;;;2.60;99.90;;;;;;5041351;28;25043;-74
2023/02/26 01:29:15;;;;;;;7.63;1.63;;;2.60;99.90;;;;;;5042185;28;25139;-74
2023/02/26 01:31:51;;;;;;;13.02;2.55;;;2.60;99.90;;;;;;5046931;28;25064;-74
2023/02/26 01:34:36;;;;;;;4.35;1.70;;;2.60;99.90;;;;;;5044711;28;25059;-72
2023/02/26 01:37:16;;;;;;;7.78;2.03;;;2.70;99.90;;;;;;5034077;28;25144;-72
2023/02/26 01:40:09;;;;;;;3.85;1.40;;;2.70;99.90;;;;;;5044989;28;25162;-74
2023/02/26 01:42:36;;;;;;;8.32;1.50;;;2.80;99.90;;;;;;5029598;28;25135;-76
2023/02/26 01:45:13;;;;;;;4.93;1.73;;;2.80;99.90;;;;;;5046766;28;25076;-75
2023/02/26 01:47:55;;;;;;;11.57;1.73;;;2.70;99.90;;;;;;5049234;28;25058;-75
2023/02/26 01:50:30;;;;;;;5.63;2.20;;;2.70;99.90;;;;;;5041344;28;25054;-75
2023/02/26 01:53:19;;;;;;;3.30;1.27;;;2.70;99.90;;;;;;5046263;28;25089;-74
2023/02/26 01:55:50;;;;;;;4.30;1.60;;;2.60;99.90;;;;;;5043474;28;25080;-75
2023/02/26 01:58:16;;;;;;;2.90;0.93;;;2.60;99.90;;;;;;5037932;28;25169;-72
2023/02/26 02:00:42;;;;;;;3.15;1.10;;;2.60;99.90;;;;;;5044634;28;25046;-75
2023/02/26 02:03:09;;;;;;;3.03;1.10;;;2.50;99.90;;;;;;5047298;28;25061;-73
2023/02/26 02:05:42;;;;;;;6.72;1.13;;;2.50;99.90;;;;;;5048507;28;25496;-74
2023/02/26 02:08:08;;;;;;;8.00;1.63;;;2.50;99.90;;;;;;5047443;28;25064;-74
2023/02/26 02:10:33;;;;;;;10.68;1.20;;;2.50;99.90;;;;;;5040371;28;25094;-73
2023/02/26 02:13:14;;;;;;;3.13;1.08;;;2.40;99.90;;;;;;5038989;28;25061;-72
2023/02/26 02:15:46;;;;;;;5.93;1.20;;;2.40;99.90;;;;;;5036555;28;25057;-74
2023/02/26 02:18:46;;;;;;;3.35;1.38;;;2.30;99.90;;;;;;5035007;28;25063;-75
2023/02/26 02:21:14;;;;;;;6.35;1.20;;;2.30;99.90;;;;;;5037981;28;25063;-73
2023/02/26 02:23:46;;;;;;;10.52;1.45;;;2.30;99.90;;;;;;5022784;28;25052;-74
2023/02/26 02:26:36;;;;;;;3.28;1.17;;;2.30;99.90;;;;;;5035332;28;25066;-73
2023/02/26 02:29:28;;;;;;;9.30;1.33;;;2.20;99.90;;;;;;5037048;28;25101;-73
2023/02/26 02:32:03;;;;;;;9.73;1.40;;;2.20;99.90;;;;;;5037555;28;25069;-76
2023/02/26 02:34:59;;;;;;;7.90;0.90;;;2.20;99.90;;;;;;5024254;28;25084;-75
2023/02/26 02:37:45;;;;;;;4.57;0.90;;;2.20;99.90;;;;;;5035491;28;25170;-72
2023/02/26 02:40:13;;;;;;;8.82;1.25;;;2.20;99.90;;;;;;5035262;28;25071;-73
2023/02/26 02:42:48;;;;;;;3.72;1.20;;;2.20;99.90;;;;;;5037983;28;25106;-74
2023/02/26 02:45:35;;;;;;;5.25;1.98;;;2.20;99.90;;;;;;5033631;28;25088;-73
2023/02/26 02:48:08;;;;;;;7.43;1.20;;;2.20;99.90;;;;;;5026460;28;25077;-73
2023/02/26 02:50:47;;;;;;;4.53;1.15;;;2.20;99.90;;;;;;5033786;28;25064;-75
2023/02/26 02:53:59;;;;;;;3.70;0.68;;;2.20;99.90;;;;;;5035321;28;25078;-73
2023/02/26 02:56:44;;;;;;;9.07;1.15;;;2.10;99.90;;;;;;5002452;28;25100;-74
2023/02/26 02:59:38;;;;;;;4.53;0.82;;;2.10;99.90;;;;;;5000654;28;25074;-74
2023/02/26 03:02:16;;;;;;;2.88;0.90;;;2.10;99.90;;;;;;5021610;28;25076;-73
2023/02/26 03:04:42;;;;;;;7.32;1.67;;;2.10;99.90;;;;;;5029815;28;25052;-73
2023/02/26 03:07:08;;;;;;;8.40;2.17;;;2.00;99.90;;;;;;5039280;28;25069;-72
2023/02/26 03:09:34;;;;;;;6.63;1.15;;;1.90;99.90;;;;;;5043427;28;25058;-73
2023/02/26 03:12:01;;;;;;;2.83;0.93;;;1.90;99.90;;;;;;5043686;28;25099;-73
2023/02/26 03:14:28;;;;;;;8.38;0.88;;;1.90;99.90;;;;;;5031830;28;25058;-74
2023/02/26 03:17:08;;;;;;;3.83;1.17;;;1.90;99.90;;;;;;5030017;28;25100;-74
2023/02/26 03:19:52;;;;;;;2.55;0.75;;;1.90;99.90;;;;;;5029209;28;25043;-74
2023/02/26 03:22:31;;;;;;;6.18;0.93;;;1.90;99.90;;;;;;5029173;28;25141;-72
2023/02/26 03:25:15;;;;;;;1.60;0.80;;;1.80;99.90;;;;;;5028288;28;25074;-75
2023/02/26 03:28:24;;;;;;;9.40;0.85;;;1.80;99.90;;;;;;5030184;28;25103;-76
2023/02/26 03:31:28;;;;;;;4.93;0.88;;;1.80;99.90;;;;;;5029461;28;25052;-72
2023/02/26 03:34:20;;;;;;;4.97;0.93;;;1.80;99.90;;;;;;5028443;28;25145;-73
2023/02/26 03:37:20;;;;;;;2.75;0.98;;;1.80;99.90;;;;;;5027726;28;25082;-74
2023/02/26 03:39:53;;;;;;;8.70;0.70;;;1.90;99.90;;;;;;5025306;28;25066;-73
2023/02/26 03:42:34;;;;;;;4.70;1.00;;;1.90;99.90;;;;;;5028404;28;25069;-74
2023/02/26 03:45:05;;;;;;;3.22;0.82;;;1.90;99.90;;;;;;5012396;28;25073;-74
2023/02/26 03:47:32;;;;;;;4.65;0.88;;;1.80;99.90;;;;;;5027662;28;25128;-77
2023/02/26 03:50:06;;;;;;;5.43;0.93;;;1.80;99.90;;;;;;5028047;28;25156;-74
2023/02/26 03:52:36;;;;;;;5.03;0.88;;;1.80;99.90;;;;;;5028591;28;25082;-73
2023/02/26 03:55:26;;;;;;;4.47;0.82;;;1.80;99.90;;;;;;5029937;28;25089;-73
2023/02/26 03:57:52;;;;;;;5.43;0.73;;;1.70;99.90;;;;;;5028658;28;25063;-74
2023/02/26 04:00:19;;;;;;;2.92;0.60;;;1.70;99.90;;;;;;5017029;28;25122;-73
2023/02/26 04:02:59;;;;;;;8.85;1.10;;;1.70;99.90;;;;;;5023960;28;25092;-74
2023/02/26 04:05:28;;;;;;;4.50;0.82;;;1.70;99.90;;;;;;5026597;28;25056;-74
2023/02/26 04:07:55;;;;;;;3.72;1.00;;;1.70;99.90;;;;;;5025719;28;25056;-73
2023/02/26 04:10:35;;;;;;;3.25;0.60;;;1.70;99.90;;;;;;5026443;28;25102;-72
2023/02/26 04:13:01;;;;;;;1.67;0.95;;;1.70;99.90;;;;;;5026069;28;25106;-73
2023/02/26 04:15:28;;;;;;;3.38;0.70;;;1.60;99.90;;;;;;5024573;28;25121;-73
2023/02/26 04:17:54;;;;;;;3.38;0.80;;;1.70;99.90;;;;;;5027749;28;25099;-72
2023/02/26 04:20:19;;;;;;;5.88;1.17;;;1.60;99.90;;;;;;5028334;28;25168;-73
2023/02/26 04:22:45;;;;;;;3.20;0.70;;;1.60;99.90;;;;;;5027875;28;25101;-73
2023/02/26 04:25:10;;;;;;;5.85;0.93;;;1.60;99.90;;;;;;5031092;28;25151;-72
2023/02/26 04:27:36;;;;;;;6.50;0.80;;;1.60;99.90;;;;;;5031114;28;25143;-75
2023/02/26 04:30:03;;;;;;;5.38;0.90;;;1.50;99.90;;;;;;5027373;28;25074;-72
2023/02/26 04:32:28;;;;;;;4.78;0.73;;;1.50;99.90;;;;;;5029415;28;25077;-74
2023/02/26 04:34:55;;;;;;;3.85;0.93;;;1.50;99.90;;;;;;5030740;28;25077;-74
2023/02/26 04:37:20;;;;;;;2.80;0.57;;;1.50;99.90;;;;;;5032138;28;25096;-75
2023/02/26 04:39:46;;;;;;;5.88;1.05;;;1.50;99.90;;;;;;5031094;28;25150;-73
2023/02/26 04:42:11;;;;;;;6.28;0.85;;;1.50;99.90;;;;;;5031959;28;25055;-73
2023/02/26 04:44:37;;;;;;;1.13;0.70;;;1.50;99.90;;;;;;5030448;28;25127;-73
2023/02/26 04:47:03;;;;;;;6.18;0.88;;;1.50;99.90;;;;;;5030892;28;25111;-73
2023/02/26 04:49:28;;;;;;;7.75;0.93;;;1.50;99.90;;;;;;5001720;28;25156;-74
2023/02/26 04:51:54;;;;;;;1.67;0.55;;;1.40;99.90;;;;;;5025594;28;25080;-74
2023/02/26 04:54:20;;;;;;;4.13;0.98;;;1.40;99.90;;;;;;5026902;28;25110;-72
2023/02/26 04:56:45;;;;;;;1.92;0.50;;;1.40;99.90;;;;;;5027224;28;25077;-74
2023/02/26 04:59:11;;;;;;;5.35;0.70;;;1.30;99.90;;;;;;5026759;28;25092;-74
2023/02/26 05:01:37;;;;;;;7.28;1.02;;;1.30;99.90;;;;;;5027654;28;25192;-74
2023/02/26 05:04:02;;;;;;;5.45;0.93;;;1.30;99.90;;;;;;5029093;28;25075;-74
2023/02/26 05:06:28;;;;;;;7.53;1.02;;;1.30;99.90;;;;;;5031719;28;25160;-72
2023/02/26 05:08:53;;;;;;;4.35;0.80;;;1.30;99.90;;;;;;5038074;28;25149;-73
2023/02/26 05:11:19;;;;;;;8.68;1.45;;;1.20;99.90;;;;;;5043315;28;25141;-73
2023/02/26 05:13:44;;;;;;;3.65;0.80;;;1.20;99.90;;;;;;5043922;28;25094;-73
2023/02/26 05:16:10;;;;;;;3.72;0.80;;;1.10;99.90;;;;;;5033150;28;25066;-73
2023/02/26 05:18:36;;;;;;;6.95;0.68;;;1.10;99.90;;;;;;5019869;28;25085;-74
2023/02/26 05:21:01;;;;;;;2.42;0.45;;;1.10;99.90;;;;;;5031126;28;25120;-73
2023/02/26 05:23:27;;;;;;;4.05;1.20;;;1.10;99.90;;;;;;5031623;28;25083;-75
2023/02/26 05:25:57;;;;;;;1.33;0.50;;;1.00;99.90;;;;;;5031432;28;25057;-74
2023/02/26 05:28:26;;;;;;;4.38;1.20;;;1.00;99.90;;;;;;5032530;28;25073;-73
2023/02/26 05:30:52;;;;;;;4.10;0.60;;;1.00;99.90;;;;;;5030149;28;25175;-73
2023/02/26 05:33:18;;;;;;;5.28;0.68;;;1.00;99.90;;;;;;5030097;28;25128;-75
2023/02/26 05:35:47;;;;;;;2.33;0.73;;;1.00;99.90;;;;;;5029961;28;25098;-72
2023/02/26 05:38:13;;;;;;;3.60;1.15;;;0.90;99.90;;;;;;5027735;28;25107;-74
2023/02/26 05:40:38;;;;;;;3.83;0.57;;;0.90;99.90;;;;;;5028455;28;25100;-72
2023/02/26 05:43:04;;;;;;;5.45;0.98;;;0.90;99.90;;;;;;5029600;28;25176;-74
2023/02/26 05:45:29;;;;;;;5.07;1.10;;;0.80;99.90;;;;;;5029405;28;25151;-73
2023/02/26 05:47:55;;;;;;;2.03;0.77;;;0.80;99.90;;;;;;5030084;28;25147;-74
2023/02/26 05:50:21;;;;;;;4.07;0.93;;;0.70;99.90;;;;;;5025012;28;25093;-73
2023/02/26 05:52:46;;;;;;;2.47;0.70;;;0.70;99.90;;;;;;5028098;28;25116;-74
2023/02/26 05:55:12;;;;;;;6.07;0.80;;;0.70;99.90;;;;;;5028209;28;25072;-74
2023/02/26 05:57:39;;;;;;;3.70;0.98;;;0.70;99.90;;;;;;5029357;28;25083;-73
2023/02/26 06:00:07;;;;;;;11.90;0.95;;;0.70;99.90;;;;;;5015527;28;25069;-75
2023/02/26 06:02:33;;;;;;;3.65;0.90;;;0.70;99.90;;;;;;5030630;28;25052;-75
2023/02/26 06:04:58;;;;;;;4.30;0.70;;;0.70;99.90;;;;;;5018216;28;25074;-72
2023/02/26 06:07:24;;;;;;;3.35;0.65;;;0.70;99.90;;;;;;5030161;28;25062;-72
2023/02/26 06:09:50;;;;;;;4.35;0.75;;;0.70;99.90;;;;;;5027587;28;25066;-72
2023/02/26 06:12:15;;;;;;;4.47;0.55;;;0.70;99.90;;;;;;5029801;28;25104;-74
2023/02/26 06:14:41;;;;;;;1.40;0.90;;;0.70;99.90;;;;;;5028674;28;25062;-73
2023/02/26 06:17:07;;;;;;;5.68;0.88;;;0.60;99.90;;;;;;5043327;28;25079;-72
2023/02/26 06:19:33;;;;;;;3.63;0.73;;;0.70;99.90;;;;;;5046133;28;25079;-74
2023/02/26 06:21:58;;;;;;;4.80;1.25;;;0.60;99.90;;;;;;5023824;28;25087;-72
2023/02/26 06:24:25;;;;;;;1.67;0.60;;;0.60;99.90;;;;;;5032341;28;25079;-72
2023/02/26 06:26:50;;;;;;;3.50;0.80;;;0.60;99.90;;;;;;5030862;28;25059;-73
2023/02/26 06:29:17;;;;;;;6.57;1.58;;;0.60;99.90;;;;;;5033333;28;25076;-73
2023/02/26 06:31:43;;;;;;;2.95;0.65;;;0.60;99.90;;;;;;5030962;28;25049;-72
2023/02/26 06:34:09;;;;;;;5.53;0.98;;;0.60;99.90;;;;;;5030404;28;25130;-73
2023/02/26 06:36:35;;;;;;;1.25;0.80;;;0.70;99.90;;;;;;5030362;28;25073;-73
2023/02/26 06:39:01;;;;;;;4.03;0.52;;;0.60;99.90;;;;;;5031387;28;25145;-72
2023/02/26 06:41:26;;;;;;;5.13;0.90;;;0.60;99.90;;;;;;5032653;28;25063;-73
2023/02/26 06:43:52;;;;;;;5.50;0.98;;;0.70;99.90;;;;;;5031019;28;25075;-73
2023/02/26 06:46:18;;;;;;;11.75;1.10;;;0.70;99.90;;;;;;5032157;28;25142;-72
2023/02/26 06:48:43;;;;;;;5.20;1.40;;;0.70;99.90;;;;;;5029880;28;25065;-73
2023/02/26 06:51:09;;;;;;;1.95;0.90;;;0.60;99.90;;;;;;5028846;28;25168;-74
2023/02/26 06:53:34;;;;;;;3.40;0.75;;;0.60;99.90;;;;;;5032718;28;25061;-71
2023/02/26 06:56:00;;;;;;;4.20;0.70;;;0.60;99.90;;;;;;5029123;28;25087;-72
2023/02/26 06:58:25;;;;;;;3.63;0.80;;;0.60;99.90;;;;;;5030222;28;25069;-72
2023/02/26 07:00:51;;;;;;;5.20;0.70;;;0.70;99.90;;;;;;5024860;28;25068;-73
2023/02/26 07:03:17;;;;;;;1.92;0.65;;;0.60;99.90;;;;;;5031035;28;25087;-72
2023/02/26 07:05:44;;;;;;;1.00;0.50;;;0.60;99.90;;;;;;5034949;28;25096;-71
2023/02/26 07:08:10;;;;;;;3.85;0.73;;;0.60;99.90;;;;;;5040141;28;25068;-73
2023/02/26 07:10:37;;;;;;;8.07;1.15;;;0.60;99.90;;;;;;5028725;28;25070;-74
2023/02/26 07:13:02;;;;;;;1.75;0.70;;;0.60;99.90;;;;;;5023539;28;25105;-76
2023/02/26 07:15:29;;;;;;;3.00;0.85;;;0.60;99.90;;;;;;5022108;28;25086;-72
2023/02/26 07:17:54;;;;;;;6.65;0.60;;;0.60;99.90;;;;;;5023233;28;25079;-75
2023/02/26 07:20:21;;;;;;;1.23;0.60;;;0.70;99.90;;;;;;5028588;28;25164;-73
2023/02/26 07:22:47;;;;;;;5.75;1.40;;;0.70;99.90;;;;;;5024542;28;25078;-71
2023/02/26 07:25:13;;;;;;;3.03;0.77;;;0.70;99.90;;;;;;5023198;28;25130;-74
2023/02/26 07:27:39;;;;;;;6.57;1.00;;;0.70;99.90;;;;;;5023735;28;25161;-73
2023/02/26 07:30:07;;;;;;;3.13;0.60;;;0.70;99.90;;;;;;5026328;28;25147;-74
2023/02/26 07:32:33;;;;;;;1.15;1.02;;;0.70;99.90;;;;;;5029351;28;25096;-73
2023/02/26 07:34:58;;;;;;;1.90;0.63;;;0.70;99.90;;;;;;5030675;28;25081;-74
2023/02/26 07:37:24;;;;;;;3.80;0.80;;;0.70;99.90;;;;;;5034063;28;25051;-72
2023/02/26 07:39:50;;;;;;;1.27;0.65;;;0.80;99.90;;;;;;5034161;28;25162;-74
2023/02/26 07:42:16;;;;;;;4.63;0.73;;;0.80;99.90;;;;;;5032314;28;25074;-73
2023/02/26 07:44:42;;;;;;;3.22;0.80;;;0.80;99.90;;;;;;5026018;28;25064;-74
2023/02/26 07:47:07;;;;;;;0.95;0.47;;;0.80;99.90;;;;;;5023085;28;25064;-73
2023/02/26 07:49:33;;;;;;;3.03;1.38;;;0.90;99.90;;;;;;5019124;28;25073;-74
2023/02/26 07:51:59;;;;;;;8.15;1.00;;;0.90;99.90;;;;;;5038107;28;25058;-73
2023/02/26 07:54:25;;;;;;;1.88;0.55;;;1.00;99.90;;;;;;5037914;28;25073;-73
2023/02/26 07:56:50;;;;;;;2.35;0.80;;;1.00;99.90;;;;;;5029262;28;25078;-74
2023/02/26 07:59:16;;;;;;;2.05;0.82;;;1.10;99.90;;;;;;5024230;28;25142;-73
2023/02/26 08:01:42;;;;;;;2.03;0.68;;;1.10;99.90;;;;;;5024651;28;25056;-72
2023/02/26 08:04:07;;;;;;;3.83;0.88;;;1.10;99.90;;;;;;5023646;28;25067;-73
2023/02/26 08:06:34;;;;;;;2.50;2.28;;;1.20;99.90;;;;;;5022071;28;25063;-72
2023/02/26 08:09:00;;;;;;;3.83;0.52;;;1.20;99.90;;;;;;5022839;28;25147;-72
2023/02/26 08:11:25;;;;;;;2.63;0.60;;;1.30;99.90;;;;;;5023559;28;25077;-74
2023/02/26 08:13:51;;;;;;;4.10;0.70;;;1.30;99.90;;;;;;5022167;28;25081;-73
2023/02/26 08:16:16;;;;;;;3.70;1.05;;;1.40;99.90;;;;;;5022800;28;25068;-72
2023/02/26 08:18:42;;;;;;;2.65;0.68;;;1.40;99.90;;;;;;5022069;28;25098;-73
2023/02/26 08:21:07;;;;;;;2.65;0.90;;;1.40;99.90;;;;;;5021234;28;25153;-74
2023/02/26 08:23:33;;;;;;;5.03;0.70;;;1.40;99.90;;;;;;4996260;28;25068;-74
2023/02/26 08:26:07;;;;;;;5.00;0.85;;;1.50;99.90;;;;;;5021512;28;25068;-73
2023/02/26 08:28:33;;;;;;;1.80;0.90;;;1.50;99.90;;;;;;5025805;28;25054;-72
2023/02/26 08:30:59;;;;;;;2.83;0.95;;;1.70;99.90;;;;;;5025828;28;25052;-72
2023/02/26 08:33:25;;;;;;;3.22;0.70;;;1.70;99.90;;;;;;5025671;28;25080;-74
2023/02/26 08:35:52;;;;;;;6.10;0.93;;;1.80;99.90;;;;;;5024122;28;25076;-75
2023/02/26 08:38:18;;;;;;;3.78;0.82;;;1.90;99.90;;;;;;5024742;28;25067;-72
2023/02/26 08:40:44;;;;;;;3.88;0.90;;;2.00;99.90;;;;;;5025749;28;25097;-73
2023/02/26 08:43:10;;;;;;;6.38;1.13;;;2.10;99.90;;;;;;5023985;28;25166;-73
2023/02/26 08:45:36;;;;;;;4.97;0.90;;;2.30;99.90;;;;;;5024744;28;25058;-74
2023/02/26 08:48:02;;;;;;;5.28;0.98;;;2.40;99.90;;;;;;5025252;28;25055;-72
2023/02/26 08:50:28;;;;;;;3.40;0.93;;;2.50;99.90;;;;;;5024742;28;25081;-75
2023/02/26 08:52:54;;;;;;;5.45;0.60;;;2.60;99.90;;;;;;5024880;28;25070;-72
2023/02/26 08:55:19;;;;;;;2.08;0.57;;;2.80;99.90;;;;;;5012820;28;25130;-74
2023/02/26 08:57:45;;;;;;;2.63;0.80;;;2.90;99.90;;;;;;5023206;28;25078;-74
2023/02/26 09:00:11;;;;;;;8.70;1.38;;;2.80;99.90;;;;;;5022832;28;25070;-75
2023/02/26 09:02:37;;;;;;;3.70;0.77;;;2.80;99.90;;;;;;5026756;28;25059;-72
2023/02/26 09:05:04;;;;;;;7.00;0.80;;;2.80;99.90;;;;;;5024761;28;25151;-74
2023/02/26 09:07:30;;;;;;;5.55;0.90;;;2.90;99.90;;;;;;5023554;28;25069;-74
2023/02/26 09:09:56;;;;;;;3.22;0.98;;;3.10;99.90;;;;;;5021649;28;25072;-73
2023/02/26 09:12:21;;;;;;;2.03;0.73;;;3.40;99.90;;;;;;5023182;28;25074;-75
2023/02/26 09:14:47;;;;;;;3.50;0.90;;;3.30;99.90;;;;;;5021715;28;25061;-72
2023/02/26 09:17:13;;;;;;;4.20;0.80;;;3.20;99.90;;;;;;5021882;28;25093;-77
2023/02/26 09:19:38;;;;;;;1.30;0.65;;;3.00;99.90;;;;;;5020582;28;25072;-75
2023/02/26 09:22:04;;;;;;;3.15;1.10;;;3.10;99.90;;;;;;5023664;28;25079;-76
2023/02/26 09:24:29;;;;;;;5.93;1.05;;;3.20;99.90;;;;;;5038313;28;25106;-76
2023/02/26 09:26:55;;;;;;;1.77;0.50;;;3.40;99.90;;;;;;5043054;28;25065;-74
2023/02/26 09:29:20;;;;;;;5.15;0.73;;;3.40;99.90;;;;;;5044196;28;25109;-73
2023/02/26 09:31:46;;;;;;;1.98;0.70;;;3.40;99.90;;;;;;5023456;28;25099;-76
2023/02/26 09:34:12;;;;;;;6.88;0.85;;;3.20;99.90;;;;;;5024893;28;25083;-75
2023/02/26 09:36:38;;;;;;;8.48;1.45;;;3.30;99.90;;;;;;5024325;28;25098;-73
2023/02/26 09:39:05;;;;;;;4.45;0.80;;;3.40;99.90;;;;;;5022979;28;25049;-76
2023/02/26 09:41:40;;;;;;;4.32;1.42;;;3.40;91.60;;;;;;5024630;28;25103;-73
2023/02/26 09:44:32;;;;;;;3.25;0.93;;;3.30;99.70;;;;;;5024115;28;25140;-74
2023/02/26 09:47:23;;;;;;;3.45;0.98;;;3.30;99.90;;;;;;5024443;28;25065;-76
2023/02/26 09:50:06;;;;;;;1.58;0.80;;;3.20;69.50;;;;;;5026205;28;25095;-73
2023/02/26 09:52:36;;;;;;;2.67;0.75;;;3.20;82.80;;;;;;5024435;28;25049;-75
2023/02/26 09:55:13;;;;;;;4.60;0.80;;;3.30;90.30;;;;;;5026035;28;25101;-75
2023/02/26 09:57:42;;;;;;;2.30;0.80;;;3.40;71.50;;;;;;5025608;28;25060;-75
2023/02/26 10:00:33;;;;;;;5.30;0.55;;;3.50;44.70;;;;;;5026422;28;25068;-74
2023/02/26 10:03:08;;;;;;;1.90;0.60;;;3.60;19.00;;;;;;5026662;28;25087;-76
2023/02/26 10:06:12;;;;;;;2.20;0.65;;;3.80;13.20;;;;;;5026622;28;25087;-75
2023/02/26 10:09:04;;;;;;;2.00;0.80;;;3.80;1.00;;;;;;5026506;28;25052;-75
2023/02/26 10:11:39;;;;;;;2.90;0.63;;;3.90;1.00;;;;;;5024650;28;25073;-74
2023/02/26 10:14:11;;;;;;;2.65;0.55;;;3.80;1.00;;;;;;5024981;28;25138;-76
2023/02/26 10:16:41;;;;;;;1.40;0.65;;;3.90;1.00;;;;;;5025475;28;25096;-75
2023/02/26 10:19:12;;;;;;;1.95;0.65;;;4.00;1.00;;;;;;5027918;28;25068;-74
2023/02/26 10:21:47;;;;;;;1.48;0.55;;;4.10;1.00;;;;;;5026387;28;25079;-76
2023/02/26 10:24:28;;;;;;;1.50;0.65;;;4.20;1.00;;;;;;5019913;28;25077;-76
2023/02/26 10:27:04;;;;;;;1.85;0.70;;;4.20;1.00;;;;;;5026196;28;25069;-78
2023/02/26 10:29:59;;;;;;;1.00;0.47;;;4.10;1.00;;;;;;5024207;28;25077;-74
2023/02/26 10:32:31;;;;;;;3.40;0.80;;;4.20;1.00;;;;;;5023736;28;24761;-75
2023/02/26 10:35:04;;;;;;;5.47;1.20;;;4.20;1.00;;;;;;5023485;28;25074;-75
2023/02/26 10:37:46;;;;;;;1.75;0.57;;;4.40;1.00;;;;;;5023624;28;25092;-74
2023/02/26 10:40:33;;;;;;;1.70;0.50;;;4.70;1.00;;;;;;5023369;28;25071;-76
2023/02/26 10:43:21;;;;;;;1.92;0.60;;;4.70;1.00;;;;;;5024350;28;25065;-73
2023/02/26 10:46:16;;;;;;;3.22;0.40;;;4.60;1.00;;;;;;5026040;28;25139;-77
2023/02/26 10:49:13;;;;;;;2.15;0.73;;;4.60;99.90;;;;;;5026706;28;25147;-76
2023/02/26 10:51:39;;;;;;;0.40;0.40;;;4.80;1.00;;;;;;5019291;28;25164;-78
2023/02/26 10:54:34;;;;;;;3.20;0.40;;;4.80;99.90;;;;;;5025284;28;25125;-76
2023/02/26 10:56:59;;;;;;;2.28;0.65;;;4.90;99.90;;;;;;5024813;28;25078;-76
2023/02/26 10:59:26;;;;;;;2.65;1.63;;;4.60;99.90;;;;;;5025206;28;25128;-77
2023/02/26 11:01:52;;;;;;;1.40;0.70;;;4.70;99.90;;;;;;5025692;28;25136;-79
2023/02/26 11:04:22;;;;;;;1.05;0.50;;;5.00;99.90;;;;;;5031726;28;25068;-76
2023/02/26 11:06:52;;;;;;;1.65;0.20;;;4.90;99.90;;;;;;5034853;28;25456;-76
2023/02/26 11:09:40;;;;;;;1.17;0.60;;;4.90;99.90;;;;;;5037123;28;25086;-73
2023/02/26 11:12:11;;;;;;;1.92;0.40;;;5.20;99.90;;;;;;5026187;28;25050;-77
2023/02/26 11:14:37;;;;;;;0.93;0.40;;;5.30;99.90;;;;;;5023952;28;25082;-76
2023/02/26 11:17:10;;;;;;;1.45;0.57;;;5.50;99.90;;;;;;5024901;28;25076;-74
2023/02/26 11:19:40;;;;;;;4.13;0.60;;;5.50;99.90;;;;;;5033001;28;25167;-76
2023/02/26 11:22:10;;;;;;;2.63;0.63;;;5.80;99.90;;;;;;5015757;28;25146;-74
2023/02/26 11:24:39;;;;;;;4.15;0.73;;;5.80;99.90;;;;;;5024647;28;25124;-77
2023/02/26 11:27:12;;;;;;;3.20;0.65;;;5.30;99.90;;;;;;5031959;28;25079;-76
2023/02/26 11:29:40;;;;;;;3.45;1.02;;;5.40;99.90;;;;;;5028095;28;25080;-75
2023/02/26 11:32:17;;;;;;;6.25;0.70;;;5.70;99.90;;;;;;5031446;28;25074;-81
2023/02/26 11:34:48;;;;;;;1.27;0.50;;;5.90;99.90;;;;;;5034096;28;25066;-77
2023/02/26 11:37:27;;;;;;;4.05;0.73;;;5.60;99.90;;;;;;5033838;28;25056;-75
2023/02/26 11:39:58;;;;;;;5.93;0.57;;;5.80;99.90;;;;;;5033450;28;25103;-76
2023/02/26 11:42:26;;;;;;;0.60;0.50;;;6.10;99.90;;;;;;5020598;28;25065;-78
2023/02/26 11:44:52;;;;;;;3.28;0.40;;;6.10;99.90;;;;;;5022044;28;25047;-78
2023/02/26 11:47:26;;;;;;;1.75;0.60;;;6.30;99.90;;;;;;5022574;28;25057;-76
2023/02/26 11:49:54;;;;;;;0.98;0.30;;;6.50;99.90;;;;;;5037657;28;25058;-78
2023/02/26 11:52:44;;;;;;;1.35;0.35;;;6.30;99.90;;;;;;5035261;28;25473;-80
2023/02/26 11:55:21;;;;;;;1.38;0.40;;;6.10;99.90;;;;;;5035692;28;25066;-76
2023/02/26 11:57:55;;;;;;;2.22;0.45;;;6.60;99.90;;;;;;5023700;28;25065;-77
2023/02/26 12:00:35;;;;;;;0.80;0.30;;;6.90;99.90;;;;;;5036570;28;25077;-77
2023/02/26 12:03:03;;;;;;;3.30;0.63;;;6.90;99.90;;;;;;5025793;28;25071;-80
2023/02/26 12:05:30;;;;;;;1.40;0.63;;;6.60;99.90;;;;;;5025248;28;25051;-79
2023/02/26 12:07:56;;;;;;;2.42;0.65;;;7.20;99.90;;;;;;5037497;28;25089;-73
2023/02/26 12:10:39;;;;;;;3.75;0.60;;;6.90;99.90;;;;;;5033969;28;25073;-76
2023/02/26 12:13:57;;;;;;;1.48;0.43;;;6.90;99.90;;;;;;5035899;28;25100;-75
2023/02/26 12:16:41;;;;;;;3.53;0.60;;;6.50;99.90;;;;;;5033707;28;25072;-77
2023/02/26 12:19:25;;;;;;;0.77;0.40;;;6.70;99.90;;;;;;5036931;28;25062;-77
2023/02/26 12:22:22;;;;;;;2.92;0.57;;;6.40;99.90;;;;;;5036542;28;25079;-75
2023/02/26 12:25:20;;;;;;;0.63;0.40;;;6.10;99.90;;;;;;5034013;28;25080;-77
2023/02/26 12:27:54;;;;;;;4.18;0.77;;;6.10;99.90;;;;;;5037138;28;25057;-73
2023/02/26 12:30:35;;;;;;;4.03;0.40;;;5.90;99.90;;;;;;5036427;28;25150;-74
2023/02/26 12:33:31;;;;;;;0.60;0.30;;;6.30;99.90;;;;;;5036333;28;25068;-74
2023/02/26 12:36:11;;;;;;;0.73;0.60;;;6.60;99.90;;;;;;5033067;28;25072;-72
2023/02/26 12:38:47;;;;;;;3.10;0.43;;;6.60;99.90;;;;;;5036331;28;25070;-77
2023/02/26 12:41:39;;;;;;;1.58;0.45;;;6.80;99.90;;;;;;5036130;28;25001;-80
2023/02/26 12:44:22;;;;;;;4.80;0.60;;;7.20;99.90;;;;;;5044025;28;25072;-77
2023/02/26 12:47:32;;;;;;;3.25;0.40;;;7.10;99.90;;;;;;5049905;28;25068;-76
2023/02/26 12:50:25;;;;;;;2.92;0.55;;;6.80;99.90;;;;;;5037240;28;25068;-75
2023/02/26 12:53:09;;;;;;;1.95;0.75;;;7.00;99.90;;;;;;5035828;28;25153;-78
2023/02/26 12:56:06;;;;;;;0.70;0.70;;;6.90;99.90;;;;;;5037591;28;25162;-74
2023/02/26 12:59:04;;;;;;;1.92;0.45;;;6.80;99.90;;;;;;5029391;28;25072;-76
2023/02/26 13:01:54;;;;;;;2.45;0.47;;;6.80;99.90;;;;;;5020865;28;25067;-73
2023/02/26 13:05:20;;;;;;;0.47;0.30;;;7.00;99.90;;;;;;5044314;28;25077;-75
2023/02/26 13:08:11;;;;;;;1.42;0.30;;;7.00;98.60;;;;;;4987261;28;25100;-75
2023/02/26 13:10:55;;;;;;;1.05;0.40;;;6.90;93.10;;;;;;4981607;28;25074;-75
2023/02/26 13:13:47;;;;;;;1.25;0.47;;;6.40;79.20;;;;;;5025736;28;25077;-76
2023/02/26 13:16:27;;;;;;;0.88;0.40;;;6.60;95.20;;;;;;5047884;28;25128;-77
2023/02/26 13:19:00;;;;;;;3.33;0.50;;;7.10;89.90;;;;;;5050675;28;25094;-76
2023/02/26 13:21:49;;;;;;;1.63;0.63;;;7.20;77.20;;;;;;5046777;28;25103;-76
2023/02/26 13:24:22;;;;;;;0.60;0.40;;;7.10;85.60;;;;;;5025169;28;25061;-74
2023/02/26 13:26:50;;;;;;;3.63;0.40;;;7.30;78.30;;;;;;5036810;28;25085;-77